Hallie, Wisconsin
Current Conditions -  °F | °C
As of 7:08 PM on Friday 24 Oct 2014 (Local Time) from KEAU Reporting Station
Overcast Overcast  
Wind Chill: 57°   Ceiling: 2100
Heat Index: 57°   Visibility: 9mi
Dew Point: 55°   Wind: 5mph
Humidity: 93%   Direction: 220°SW
Pressure: 29.87"   Gusts: NA
Location:  44.9743°N, 91.4379°W
Report Text: KEAU 250008Z 22004KT 9SM FEW008 SCT013 OVC021 14/13 A2987 RMK AO2 T01390128
Loading
Personal Weather Stations






























Interactive Weather Map
Tropical Storm Tracking
New forecast layout! Learn more

10-Day Weather Forecast

Advertisements
Track Severe Weather on mobile